createdAt,value
2023-03-27T00:02:05.310Z,4.50
2023-03-27T00:04:31.900Z,4.39
2023-03-27T00:07:00.445Z,4.54
2023-03-27T00:09:28.436Z,4.25
2023-03-27T00:11:56.143Z,4.15
2023-03-27T00:14:23.888Z,3.84
2023-03-27T00:16:50.999Z,4.05
2023-03-27T00:19:18.841Z,3.94
2023-03-27T00:21:45.618Z,3.97
2023-03-27T00:24:12.288Z,4.29
2023-03-27T00:26:40.521Z,4.43
2023-03-27T00:29:07.864Z,4.38
2023-03-27T00:31:35.057Z,4.20
2023-03-27T00:34:01.810Z,4.16
2023-03-27T00:36:28.302Z,4.15
2023-03-27T00:38:56.626Z,4.03
2023-03-27T00:41:24.089Z,3.94
2023-03-27T00:43:54.154Z,3.62
2023-03-27T00:46:41.500Z,3.86
2023-03-27T00:49:11.827Z,4.06
2023-03-27T00:51:41.922Z,3.86
2023-03-27T00:54:09.803Z,3.64
2023-03-27T00:56:38.932Z,3.65
2023-03-27T00:59:15.475Z,3.86
2023-03-27T01:01:44.196Z,3.86
2023-03-27T01:04:11.353Z,3.82
2023-03-27T01:06:41.895Z,3.69
2023-03-27T01:09:09.339Z,3.63
2023-03-27T01:11:40.690Z,3.52
2023-03-27T01:14:15.513Z,3.15
2023-03-27T01:17:19.849Z,3.58
2023-03-27T01:20:03.852Z,3.62
2023-03-27T01:22:58.322Z,3.87
2023-03-27T01:25:47.650Z,3.66
2023-03-27T01:28:38.667Z,3.45
2023-03-27T01:31:25.213Z,3.23
2023-03-27T01:34:03.126Z,3.25
2023-03-27T01:36:40.512Z,3.18
2023-03-27T01:39:30.483Z,2.55
2023-03-27T01:42:18.940Z,2.11
2023-03-27T01:45:06.834Z,2.05
2023-03-27T01:47:41.257Z,2.18
2023-03-27T01:50:19.361Z,2.35
2023-03-27T01:52:53.654Z,2.33
2023-03-27T01:55:24.705Z,1.96
2023-03-27T01:58:14.247Z,1.99
2023-03-27T02:00:52.055Z,2.12
2023-03-27T02:03:27.662Z,2.27
2023-03-27T02:05:58.286Z,2.09
2023-03-27T02:08:44.958Z,2.04
2023-03-27T02:11:15.458Z,1.90
2023-03-27T02:13:57.463Z,1.72
2023-03-27T02:16:33.572Z,1.77
2023-03-27T02:19:13.003Z,1.69
2023-03-27T02:21:39.434Z,2.00
2023-03-27T02:24:06.664Z,1.99
2023-03-27T02:26:36.152Z,1.89
2023-03-27T02:29:14.416Z,1.87
2023-03-27T02:32:03.743Z,2.04
2023-03-27T02:34:56.974Z,2.27
2023-03-27T02:37:57.299Z,2.00
2023-03-27T02:41:18.862Z,2.15
2023-03-27T02:44:09.867Z,1.75
2023-03-27T02:47:07.689Z,1.50
2023-03-27T02:49:44.113Z,1.77
2023-03-27T02:52:17.160Z,1.85
2023-03-27T02:54:51.067Z,1.30
2023-03-27T02:57:24.973Z,1.68
2023-03-27T03:00:28.352Z,1.73
2023-03-27T03:03:13.984Z,1.50
2023-03-27T03:05:41.258Z,1.73
2023-03-27T03:08:10.132Z,1.72
2023-03-27T03:10:42.996Z,1.72
2023-03-27T03:13:09.568Z,1.74
2023-03-27T03:15:37.442Z,1.34
2023-03-27T03:18:04.002Z,1.56
2023-03-27T03:20:30.992Z,1.51
2023-03-27T03:22:59.587Z,1.41
2023-03-27T03:25:26.283Z,1.48
2023-03-27T03:27:58.186Z,1.30
2023-03-27T03:30:30.101Z,1.07
2023-03-27T03:33:02.806Z,1.18
2023-03-27T03:35:29.724Z,0.93
2023-03-27T03:37:58.819Z,0.80
2023-03-27T03:40:26.732Z,0.96
2023-03-27T03:42:56.740Z,1.02
2023-03-27T03:45:27.167Z,0.88
2023-03-27T03:47:54.305Z,0.81
2023-03-27T03:50:22.760Z,0.79
2023-03-27T03:52:49.512Z,1.03
2023-03-27T03:55:16.161Z,0.98
2023-03-27T03:57:50.154Z,1.22
2023-03-27T04:00:23.257Z,1.35
2023-03-27T04:02:56.745Z,1.47
2023-03-27T04:05:23.909Z,1.38
2023-03-27T04:07:56.495Z,1.43
2023-03-27T04:10:39.405Z,1.21
2023-03-27T04:13:13.396Z,0.89
2023-03-27T04:15:51.335Z,1.08
2023-03-27T04:18:32.935Z,1.12
2023-03-27T04:21:03.023Z,0.98
2023-03-27T04:23:33.397Z,1.20
2023-03-27T04:26:03.113Z,1.29
2023-03-27T04:28:51.639Z,1.23
2023-03-27T04:31:39.815Z,1.29
2023-03-27T04:34:26.260Z,1.30
2023-03-27T04:37:07.766Z,1.30
2023-03-27T04:39:41.540Z,1.30
2023-03-27T04:42:10.348Z,1.28
2023-03-27T04:44:38.204Z,0.95
2023-03-27T04:47:08.582Z,1.32
2023-03-27T04:49:40.684Z,2.27
2023-03-27T04:52:17.951Z,3.05
2023-03-27T04:54:44.928Z,3.68
2023-03-27T04:57:11.872Z,4.16
2023-03-27T04:59:38.487Z,4.36
2023-03-27T05:02:24.386Z,4.47
2023-03-27T05:04:58.840Z,4.79
2023-03-27T05:07:31.277Z,5.00
2023-03-27T05:09:58.094Z,4.17
2023-03-27T05:12:28.284Z,3.29
2023-03-27T05:14:59.476Z,2.80
2023-03-27T05:17:52.840Z,1.67
2023-03-27T05:20:22.069Z,1.68
2023-03-27T05:22:52.121Z,1.40
2023-03-27T05:25:39.360Z,1.46
2023-03-27T05:28:10.878Z,1.50
2023-03-27T05:30:37.713Z,1.49
2023-03-27T05:33:17.509Z,1.62
2023-03-27T05:35:48.086Z,1.58
2023-03-27T05:38:15.930Z,1.24
2023-03-27T05:41:02.636Z,1.41
2023-03-27T05:43:31.189Z,1.68
2023-03-27T05:45:57.990Z,2.06
2023-03-27T05:48:25.233Z,2.47
2023-03-27T05:50:51.964Z,2.87
2023-03-27T05:53:28.029Z,3.40
2023-03-27T05:56:14.400Z,3.98
2023-03-27T05:58:52.478Z,4.36
2023-03-27T06:01:21.039Z,4.37
2023-03-27T06:03:49.284Z,4.64
2023-03-27T06:06:22.310Z,5.13
2023-03-27T06:08:55.972Z,5.34
2023-03-27T06:11:23.113Z,5.04
2023-03-27T06:13:51.008Z,4.67
2023-03-27T06:16:22.173Z,4.35
2023-03-27T06:19:05.408Z,4.11
2023-03-27T06:21:32.521Z,3.79
2023-03-27T06:24:01.245Z,3.63
2023-03-27T06:26:28.277Z,3.44
2023-03-27T06:28:56.338Z,3.35
2023-03-27T06:31:23.269Z,3.19
2023-03-27T06:34:01.920Z,3.08
2023-03-27T06:36:41.590Z,3.10
2023-03-27T06:39:10.962Z,3.27
2023-03-27T06:41:37.574Z,3.83
2023-03-27T06:44:04.228Z,4.51
2023-03-27T06:46:45.387Z,5.22
2023-03-27T06:49:16.452Z,5.70
2023-03-27T06:51:42.979Z,5.51
2023-03-27T06:54:12.315Z,6.09
2023-03-27T06:56:44.348Z,6.50
2023-03-27T06:59:15.192Z,6.66
2023-03-27T07:01:43.788Z,6.76
2023-03-27T07:04:22.545Z,6.87
2023-03-27T07:07:01.141Z,6.63
2023-03-27T07:09:32.933Z,6.87
2023-03-27T07:12:04.115Z,5.70
2023-03-27T07:14:30.594Z,6.73
2023-03-27T07:16:57.090Z,7.12
2023-03-27T07:19:27.249Z,7.76
2023-03-27T07:22:03.222Z,6.91
2023-03-27T07:24:32.003Z,6.90
2023-03-27T07:26:58.611Z,7.67
2023-03-27T07:29:31.767Z,8.33
2023-03-27T07:32:02.837Z,8.24
2023-03-27T07:34:39.033Z,7.12
2023-03-27T07:37:05.705Z,6.53
2023-03-27T07:39:33.610Z,7.05
2023-03-27T07:42:00.483Z,6.21
2023-03-27T07:44:43.212Z,7.11
2023-03-27T07:47:09.704Z,7.42
2023-03-27T07:49:40.083Z,6.14
2023-03-27T07:52:11.144Z,6.43
2023-03-27T07:54:48.646Z,7.00
2023-03-27T07:57:17.122Z,7.05
2023-03-27T07:59:52.619Z,6.58
2023-03-27T08:02:27.730Z,6.87
2023-03-27T08:04:55.156Z,6.89
2023-03-27T08:07:22.732Z,7.43
2023-03-27T08:09:49.320Z,7.05
2023-03-27T08:12:15.819Z,6.35
2023-03-27T08:14:49.891Z,6.52
2023-03-27T08:17:22.220Z,6.52
2023-03-27T08:19:49.027Z,5.88
2023-03-27T08:22:16.909Z,6.15
2023-03-27T08:25:15.364Z,6.17
2023-03-27T08:27:44.557Z,5.87
2023-03-27T08:30:16.556Z,5.67
2023-03-27T08:32:43.898Z,4.75
2023-03-27T08:35:11.126Z,4.03
2023-03-27T08:37:37.998Z,4.07
2023-03-27T08:40:38.286Z,3.33
2023-03-27T08:43:41.110Z,3.19
2023-03-27T08:46:13.772Z,3.25
2023-03-27T08:48:48.518Z,2.96
2023-03-27T08:51:26.128Z,3.21
2023-03-27T08:54:02.703Z,3.48
2023-03-27T08:56:31.259Z,3.58
2023-03-27T08:58:58.048Z,3.39
2023-03-27T09:01:35.446Z,3.22
2023-03-27T09:04:25.963Z,3.56
2023-03-27T09:07:02.706Z,3.85
2023-03-27T09:10:11.203Z,4.87
2023-03-27T09:12:59.325Z,5.21
2023-03-27T09:15:52.629Z,6.21
2023-03-27T09:18:27.452Z,7.21
2023-03-27T09:21:05.708Z,7.97
2023-03-27T09:23:42.054Z,6.98
2023-03-27T09:26:43.477Z,7.90
2023-03-27T09:29:34.622Z,7.35
2023-03-27T09:32:15.486Z,7.55
2023-03-27T09:34:43.376Z,6.00
2023-03-27T09:37:12.427Z,5.99
2023-03-27T09:39:45.404Z,5.65
2023-03-27T09:42:33.589Z,5.28
2023-03-27T09:45:06.308Z,4.65
2023-03-27T09:48:05.426Z,5.59
2023-03-27T09:50:47.410Z,6.58
2023-03-27T09:53:39.684Z,6.29
2023-03-27T09:56:16.277Z,7.35
2023-03-27T09:58:51.224Z,8.15
2023-03-27T10:01:28.151Z,8.86
2023-03-27T10:04:01.095Z,9.26
2023-03-27T10:06:43.164Z,9.69
2023-03-27T10:09:29.845Z,10.08
2023-03-27T10:12:18.036Z,10.29
2023-03-27T10:14:52.256Z,9.77
2023-03-27T10:17:28.436Z,9.27
2023-03-27T10:20:14.111Z,8.49
2023-03-27T10:22:54.904Z,7.63
2023-03-27T10:25:34.282Z,5.80
2023-03-27T10:28:14.949Z,5.48
2023-03-27T10:31:04.845Z,5.53
2023-03-27T10:33:45.433Z,5.12
2023-03-27T10:36:27.608Z,5.58
2023-03-27T10:38:58.357Z,5.69
2023-03-27T10:41:37.901Z,5.88
2023-03-27T10:44:16.438Z,6.31
2023-03-27T10:46:49.039Z,5.94
2023-03-27T10:49:21.436Z,6.08
2023-03-27T10:52:29.034Z,6.27
2023-03-27T10:55:32.797Z,5.47
2023-03-27T10:58:05.397Z,4.82
2023-03-27T11:00:41.085Z,5.12
2023-03-27T11:03:17.893Z,5.06
2023-03-27T11:05:48.704Z,4.54
2023-03-27T11:08:52.862Z,4.57
2023-03-27T11:11:45.473Z,4.56
2023-03-27T11:14:31.233Z,3.27
2023-03-27T11:17:04.110Z,3.43
2023-03-27T11:20:07.276Z,3.67
2023-03-27T11:23:19.979Z,4.03
2023-03-27T11:26:07.460Z,4.47
2023-03-27T11:28:48.818Z,4.89
2023-03-27T11:31:40.921Z,5.33
2023-03-27T11:34:28.613Z,5.52
2023-03-27T11:37:09.672Z,5.54
2023-03-27T11:39:55.576Z,5.77
2023-03-27T11:42:34.396Z,6.24
2023-03-27T11:45:04.517Z,6.53
2023-03-27T11:47:56.194Z,6.82
2023-03-27T11:50:28.989Z,7.07
2023-03-27T11:53:09.259Z,7.21
2023-03-27T11:56:02.453Z,7.41
2023-03-27T11:58:47.181Z,7.46
2023-03-27T12:01:27.150Z,7.50
2023-03-27T12:04:06.664Z,7.74
2023-03-27T12:07:11.760Z,7.87
2023-03-27T12:10:11.889Z,7.98
2023-03-27T12:13:16.619Z,8.08
2023-03-27T12:16:08.888Z,8.23
2023-03-27T12:19:27.421Z,8.28
2023-03-27T12:22:30.071Z,8.28
2023-03-27T12:25:17.026Z,7.56
2023-03-27T12:28:29.502Z,7.35
2023-03-27T12:31:13.404Z,7.09
2023-03-27T12:33:57.010Z,6.82
2023-03-27T12:36:26.157Z,6.73
2023-03-27T12:38:55.703Z,6.73
2023-03-27T12:41:28.447Z,6.74
2023-03-27T12:44:13.866Z,6.64
2023-03-27T12:47:21.514Z,6.41
2023-03-27T12:50:00.720Z,5.80
2023-03-27T12:52:33.754Z,5.26
2023-03-27T12:55:18.300Z,3.73
2023-03-27T12:57:57.917Z,2.97
2023-03-27T13:00:53.743Z,3.10
2023-03-27T13:03:37.166Z,2.96
2023-03-27T13:06:45.521Z,2.73
2023-03-27T13:09:25.344Z,2.97
2023-03-27T13:12:28.228Z,3.38
2023-03-27T13:15:13.032Z,3.43
2023-03-27T13:18:15.866Z,3.75
2023-03-27T13:21:10.591Z,3.97
2023-03-27T13:24:09.340Z,4.26
2023-03-27T13:27:06.748Z,4.68
2023-03-27T13:29:37.215Z,5.07
2023-03-27T13:32:38.782Z,5.49
2023-03-27T13:35:22.107Z,5.79
2023-03-27T13:37:48.662Z,6.08
2023-03-27T13:40:20.362Z,6.13
2023-03-27T13:42:52.516Z,5.99
2023-03-27T13:45:39.803Z,5.82
2023-03-27T13:49:02.416Z,5.72
2023-03-27T13:52:02.201Z,5.57
2023-03-27T13:55:03.348Z,5.78
2023-03-27T13:58:03.011Z,5.84
2023-03-27T14:00:52.902Z,5.98
2023-03-27T14:03:41.903Z,5.99
2023-03-27T14:06:36.014Z,6.17
2023-03-27T14:09:25.450Z,6.45
2023-03-27T14:12:06.103Z,6.65
2023-03-27T14:15:16.778Z,6.89
2023-03-27T14:18:18.026Z,7.02
2023-03-27T14:20:58.227Z,7.22
2023-03-27T14:24:00.365Z,7.12
2023-03-27T14:26:41.766Z,7.40
2023-03-27T14:29:12.190Z,7.37
2023-03-27T14:31:44.305Z,7.45
2023-03-27T14:34:24.648Z,7.62
2023-03-27T14:37:28.894Z,7.83
2023-03-27T14:40:00.746Z,7.95
2023-03-27T14:42:46.858Z,7.98
2023-03-27T14:45:23.569Z,8.10
2023-03-27T14:48:03.167Z,8.12
2023-03-27T14:50:40.838Z,8.05
2023-03-27T14:53:13.513Z,8.06
2023-03-27T14:56:05.086Z,8.11
2023-03-27T14:59:03.059Z,8.20
2023-03-27T15:01:43.140Z,8.30
2023-03-27T15:04:14.050Z,8.32
2023-03-27T15:06:42.584Z,8.43
2023-03-27T15:09:15.571Z,8.47
2023-03-27T15:12:11.642Z,8.46
2023-03-27T15:14:40.133Z,8.48
2023-03-27T15:17:14.790Z,8.49
2023-03-27T15:19:45.543Z,8.35
2023-03-27T15:22:23.204Z,8.25
2023-03-27T15:25:08.607Z,7.73
2023-03-27T15:27:41.660Z,7.81
2023-03-27T15:30:31.914Z,7.76
2023-03-27T15:33:02.153Z,7.70
2023-03-27T15:35:35.129Z,7.59
2023-03-27T15:38:03.892Z,7.58
2023-03-27T15:40:37.506Z,7.56
2023-03-27T15:43:20.757Z,7.52
2023-03-27T15:45:53.792Z,7.47
2023-03-27T15:48:23.220Z,7.37
2023-03-27T15:50:59.905Z,7.22
2023-03-27T15:53:31.153Z,7.05
2023-03-27T15:55:58.494Z,7.10
2023-03-27T15:58:27.307Z,6.94
2023-03-27T16:01:02.183Z,6.92
2023-03-27T16:03:32.853Z,6.91
2023-03-27T16:06:01.011Z,6.83
2023-03-27T16:08:32.489Z,6.74
2023-03-27T16:11:00.405Z,6.67
2023-03-27T16:13:42.282Z,6.67
2023-03-27T16:16:22.476Z,6.70
2023-03-27T16:18:51.167Z,6.63
2023-03-27T16:21:21.170Z,6.24
2023-03-27T16:23:47.559Z,6.35
2023-03-27T16:26:17.280Z,6.23
2023-03-27T16:28:44.028Z,6.06
2023-03-27T16:31:16.479Z,6.11
2023-03-27T16:33:45.181Z,6.09
2023-03-27T16:36:18.509Z,5.92
2023-03-27T16:38:45.176Z,5.74
2023-03-27T16:41:13.857Z,5.81
2023-03-27T16:43:40.812Z,5.69
2023-03-27T16:46:16.881Z,5.71
2023-03-27T16:48:43.347Z,5.57
2023-03-27T16:51:09.820Z,5.66
2023-03-27T16:53:36.261Z,5.65
2023-03-27T16:56:02.688Z,5.71
2023-03-27T16:58:29.141Z,5.46
2023-03-27T17:00:55.711Z,5.44
2023-03-27T17:03:22.186Z,5.48
2023-03-27T17:05:49.034Z,5.48
2023-03-27T17:08:16.849Z,5.48
2023-03-27T17:10:44.186Z,5.43
2023-03-27T17:13:10.844Z,5.37
2023-03-27T17:15:38.248Z,5.31
2023-03-27T17:18:05.909Z,5.41
2023-03-27T17:20:35.348Z,5.32
2023-03-27T17:23:01.814Z,5.38
2023-03-27T17:25:28.317Z,5.42
2023-03-27T17:27:54.746Z,5.37
2023-03-27T17:30:34.574Z,5.35
2023-03-27T17:33:05.200Z,5.33
2023-03-27T17:35:31.880Z,5.30
2023-03-27T17:37:58.287Z,5.28
2023-03-27T17:40:24.704Z,5.24
2023-03-27T17:42:51.182Z,5.18
2023-03-27T17:45:19.097Z,5.06
2023-03-27T17:47:45.762Z,5.04
2023-03-27T17:50:12.265Z,5.01
2023-03-27T17:52:38.652Z,4.86
2023-03-27T17:55:05.457Z,4.86
2023-03-27T17:57:33.014Z,4.81
2023-03-27T17:59:59.533Z,4.73
2023-03-27T18:02:26.077Z,4.43
2023-03-27T18:04:52.661Z,3.95
2023-03-27T18:07:20.500Z,3.10
2023-03-27T18:09:47.285Z,2.52
2023-03-27T18:12:14.361Z,2.53
2023-03-27T18:14:42.350Z,2.42
2023-03-27T18:17:08.805Z,2.41
2023-03-27T18:19:35.389Z,2.09
2023-03-27T18:22:02.255Z,2.07
2023-03-27T18:24:29.040Z,2.34
2023-03-27T18:26:55.565Z,2.65
2023-03-27T18:29:24.070Z,2.96
2023-03-27T18:31:50.726Z,2.92
2023-03-27T18:34:17.310Z,2.95
2023-03-27T18:36:50.597Z,3.12
2023-03-27T18:39:20.578Z,3.16
2023-03-27T18:41:47.002Z,3.29
2023-03-27T18:44:13.815Z,3.35
2023-03-27T18:46:40.396Z,3.40
2023-03-27T18:49:17.446Z,3.42
2023-03-27T18:51:51.183Z,3.22
2023-03-27T18:54:17.591Z,3.18
2023-03-27T18:56:44.039Z,3.27
2023-03-27T18:59:11.073Z,3.29
2023-03-27T19:01:37.662Z,3.30
2023-03-27T19:04:04.772Z,3.24
2023-03-27T19:06:36.169Z,3.36
2023-03-27T19:09:02.720Z,3.24
2023-03-27T19:11:29.117Z,3.01
2023-03-27T19:14:14.082Z,3.01
2023-03-27T19:16:53.257Z,3.03
2023-03-27T19:19:41.353Z,2.81
2023-03-27T19:22:33.541Z,2.64
2023-03-27T19:25:05.624Z,2.61
2023-03-27T19:27:38.218Z,2.48
2023-03-27T19:30:07.997Z,2.46
2023-03-27T19:32:34.613Z,2.48
2023-03-27T19:35:01.791Z,2.56
2023-03-27T19:37:29.699Z,2.23
2023-03-27T19:39:56.375Z,2.37
2023-03-27T19:42:22.892Z,2.42
2023-03-27T19:44:49.321Z,2.36
2023-03-27T19:47:15.829Z,2.07
2023-03-27T19:49:42.620Z,2.13
2023-03-27T19:52:26.204Z,2.06
2023-03-27T19:54:53.803Z,2.10
2023-03-27T19:57:22.543Z,2.04
2023-03-27T19:59:50.300Z,2.02
2023-03-27T20:02:16.838Z,1.77
2023-03-27T20:04:43.541Z,1.71
2023-03-27T20:07:10.052Z,1.57
2023-03-27T20:09:36.921Z,1.62
2023-03-27T20:12:05.003Z,1.58
2023-03-27T20:14:31.510Z,1.60
2023-03-27T20:16:57.968Z,1.59
2023-03-27T20:19:28.542Z,1.70
2023-03-27T20:21:57.647Z,1.77
2023-03-27T20:24:24.463Z,1.79
2023-03-27T20:26:56.955Z,1.62
2023-03-27T20:29:25.441Z,1.57
2023-03-27T20:31:52.118Z,1.58
2023-03-27T20:34:19.332Z,1.53
2023-03-27T20:36:46.318Z,1.57
2023-03-27T20:39:21.885Z,1.58
2023-03-27T20:41:49.036Z,1.71
2023-03-27T20:44:15.987Z,1.71
2023-03-27T20:46:47.404Z,1.74
2023-03-27T20:49:37.500Z,1.60
2023-03-27T20:52:08.123Z,1.54
2023-03-27T20:54:34.819Z,1.62
2023-03-27T20:57:02.515Z,1.50
2023-03-27T20:59:29.867Z,1.50
2023-03-27T21:01:57.261Z,1.53
2023-03-27T21:04:26.420Z,1.49
2023-03-27T21:06:54.855Z,1.49
2023-03-27T21:09:22.911Z,1.59
2023-03-27T21:11:53.309Z,1.37
2023-03-27T21:14:19.751Z,1.17
2023-03-27T21:16:46.352Z,0.95
2023-03-27T21:19:12.855Z,0.96
2023-03-27T21:21:40.434Z,1.13
2023-03-27T21:24:07.088Z,1.18
2023-03-27T21:26:34.106Z,1.24
2023-03-27T21:29:01.180Z,1.16
2023-03-27T21:31:27.767Z,1.07
2023-03-27T21:33:54.418Z,0.79
2023-03-27T21:36:21.074Z,0.59
2023-03-27T21:38:47.734Z,0.53
2023-03-27T21:41:15.683Z,0.43
2023-03-27T21:43:42.363Z,0.33
2023-03-27T21:46:09.026Z,0.19
2023-03-27T21:48:35.716Z,0.35
2023-03-27T21:51:05.257Z,0.42
2023-03-27T21:53:31.801Z,0.50
2023-03-27T21:55:58.635Z,0.49
2023-03-27T21:58:25.948Z,0.61
2023-03-27T22:00:54.970Z,0.41
2023-03-27T22:03:21.453Z,0.20
2023-03-27T22:05:54.531Z,0.29
2023-03-27T22:08:27.870Z,0.27
2023-03-27T22:10:58.301Z,0.45
2023-03-27T22:13:24.893Z,0.32
2023-03-27T22:15:51.496Z,0.23
2023-03-27T22:18:18.150Z,0.35
2023-03-27T22:20:44.636Z,0.28
2023-03-27T22:23:11.248Z,0.30
2023-03-27T22:25:37.684Z,0.32
2023-03-27T22:28:04.169Z,0.27
2023-03-27T22:30:30.782Z,0.14
2023-03-27T22:32:57.394Z,0.02
2023-03-27T22:35:23.987Z,0.21
2023-03-27T22:37:50.577Z,0.15
2023-03-27T22:40:17.118Z,0.07
2023-03-27T22:42:43.556Z,-0.24
2023-03-27T22:45:10.507Z,-0.28
2023-03-27T22:47:37.024Z,-0.13
2023-03-27T22:50:04.861Z,-0.10
2023-03-27T22:52:31.365Z,-0.11
2023-03-27T22:54:57.859Z,-0.07
2023-03-27T22:57:24.255Z,-0.05
2023-03-27T22:59:51.020Z,-0.11
2023-03-27T23:02:17.448Z,-0.35
2023-03-27T23:04:43.873Z,-0.60
2023-03-27T23:07:10.633Z,-0.74
2023-03-27T23:09:37.132Z,-0.62
2023-03-27T23:12:03.779Z,-0.59
2023-03-27T23:14:30.883Z,-0.38
2023-03-27T23:16:57.376Z,-0.29
2023-03-27T23:19:23.774Z,-0.47
2023-03-27T23:21:50.276Z,-0.51
2023-03-27T23:24:16.673Z,-0.44
2023-03-27T23:26:43.128Z,-0.39
2023-03-27T23:29:09.560Z,-0.40
2023-03-27T23:31:36.111Z,-0.35
2023-03-27T23:34:02.581Z,-0.48
2023-03-27T23:36:29.726Z,-0.35
2023-03-27T23:38:56.572Z,-0.30
2023-03-27T23:41:23.192Z,-0.45
2023-03-27T23:43:49.761Z,-0.39
2023-03-27T23:46:16.853Z,-0.40
2023-03-27T23:48:44.423Z,-0.39
2023-03-27T23:51:13.684Z,-0.56
2023-03-27T23:53:41.127Z,-0.55
2023-03-27T23:56:08.265Z,-0.53
2023-03-27T23:58:37.009Z,-0.58
